Time;durP1;ratioP1;P1;durP2;ratioP2;P2;SDS_P1;SDS_P2;PMS_P1;PMS_P2;Temp;Humidity;BMP_temperature;BMP_pressure;BME280_temperature;BME280_humidity;BME280_pressure;Samples;Min_cycle;Max_cycle;Signal;HPM_P1;HPM_P2
2023/03/12 00:05:24;;;;;;;13.3;9.9;;;;;;;3.18;91.31445;932.3205;;;;
2023/03/12 00:07:48;;;;;;;11.1;9.1;;;;;;;3.18;91.0791;932.3599;;;;
2023/03/12 00:10:17;;;;;;;11.8;9.4;;;;;;;3.01;91.55762;932.3198;;;;
2023/03/12 00:12:46;;;;;;;11.8;9.2;;;;;;;3.02;91.81836;932.3154;;;;
2023/03/12 00:15:21;;;;;;;12.4;9.9;;;;;;;3.11;91.70313;932.3494;;;;
2023/03/12 00:17:51;;;;;;;12;9.4;;;;;;;3.11;91.87109;932.3665;;;;
2023/03/12 00:20:16;;;;;;;11.9;9.4;;;;;;;3.1;91.83398;932.3733;;;;
2023/03/12 00:22:41;;;;;;;11.9;9.5;;;;;;;3.01;92.21973;932.2994;;;;
2023/03/12 00:25:12;;;;;;;9.8;8.6;;;;;;;3.04;92.16016;932.3844;;;;
2023/03/12 00:27:37;;;;;;;12.1;8.8;;;;;;;2.98;92.52637;932.383;;;;
2023/03/12 00:30:07;;;;;;;11.2;9.2;;;;;;;3;92.0498;932.3928;;;;
2023/03/12 00:32:32;;;;;;;11.3;9.5;;;;;;;2.88;92.67285;932.3928;;;;
2023/03/12 00:34:58;;;;;;;12.8;9.5;;;;;;;2.99;92.6875;932.3268;;;;
2023/03/12 00:37:23;;;;;;;14.1;10.1;;;;;;;3.01;92.08496;932.4174;;;;
2023/03/12 00:39:54;;;;;;;11.4;9.1;;;;;;;2.93;92.53906;932.3967;;;;
2023/03/12 00:42:19;;;;;;;12.1;9.6;;;;;;;3.01;92.32324;932.4716;;;;
2023/03/12 00:44:54;;;;;;;13;10.2;;;;;;;3.02;92.16602;932.4405;;;;
2023/03/12 00:47:35;;;;;;;11.8;9.4;;;;;;;2.98;92.29102;932.4208;;;;
2023/03/12 00:50:05;;;;;;;11.7;9.8;;;;;;;3.03;92.44824;932.4523;;;;
2023/03/12 00:52:44;;;;;;;13.1;10;;;;;;;3.07;92.17578;932.4038;;;;
2023/03/12 00:55:18;;;;;;;11.6;9.8;;;;;;;3.07;91.77148;932.4197;;;;
2023/03/12 00:57:48;;;;;;;13;10;;;;;;;3.02;91.94141;932.4089;;;;
2023/03/12 01:00:23;;;;;;;13.5;10.5;;;;;;;3.13;91.72949;932.3301;;;;
2023/03/12 01:02:48;;;;;;;11.7;9.5;;;;;;;3.13;91.65039;932.4183;;;;
2023/03/12 01:05:17;;;;;;;11.1;9.1;;;;;;;3.14;91.49512;932.3508;;;;
2023/03/12 01:07:51;;;;;;;12.4;9.5;;;;;;;3.15;91.50879;932.2795;;;;
2023/03/12 01:10:17;;;;;;;12.8;9.9;;;;;;;3.07;91.86133;932.3528;;;;
2023/03/12 01:12:44;;;;;;;13.1;10.3;;;;;;;3.04;92.25977;932.3284;;;;
2023/03/12 01:15:09;;;;;;;14;10.5;;;;;;;3.05;92.37402;932.3893;;;;
2023/03/12 01:17:35;;;;;;;13.8;10.6;;;;;;;3.05;92.50977;932.2825;;;;
2023/03/12 01:20:02;;;;;;;13.2;10.6;;;;;;;3.02;92.61426;932.3523;;;;
2023/03/12 01:22:27;;;;;;;16.3;11;;;;;;;3.06;92.64648;932.4849;;;;
2023/03/12 01:24:55;;;;;;;12.2;10.3;;;;;;;3.11;92.37598;932.4633;;;;
2023/03/12 01:27:21;;;;;;;13.5;10.4;;;;;;;3.14;92.4834;932.5388;;;;
2023/03/12 01:29:48;;;;;;;13.7;10.3;;;;;;;3.14;92.39355;932.5419;;;;
2023/03/12 01:32:15;;;;;;;13.2;10.4;;;;;;;3.14;92.38184;932.5765;;;;
2023/03/12 01:34:41;;;;;;;12;9.3;;;;;;;3.19;92.06836;932.5849;;;;
2023/03/12 01:40:47;;;;;;;12.3;9.6;;;;;;;3.19;91.79883;932.6259;;;;
2023/03/12 01:43:14;;;;;;;11.6;9.2;;;;;;;3.29;91.38281;932.5873;;;;
2023/03/12 01:45:43;;;;;;;11.3;9;;;;;;;3.29;90.89063;932.5567;;;;
2023/03/12 01:48:09;;;;;;;11.1;8.7;;;;;;;3.27;90.69434;932.6237;;;;
2023/03/12 01:50:34;;;;;;;11.8;8.8;;;;;;;3.26;90.77051;932.5779;;;;
2023/03/12 01:53:02;;;;;;;12.7;9.3;;;;;;;3.28;90.875;932.6776;;;;
2023/03/12 01:55:28;;;;;;;11.8;9.7;;;;;;;3.21;91.10645;932.7087;;;;
2023/03/12 01:57:57;;;;;;;12.5;9.2;;;;;;;3.1;91.64453;932.6298;;;;
2023/03/12 02:00:22;;;;;;;12.5;9.6;;;;;;;3.11;91.93848;932.7896;;;;
2023/03/12 02:02:53;;;;;;;13;9.5;;;;;;;3.14;91.79883;932.7684;;;;
2023/03/12 02:05:18;;;;;;;12.4;9.6;;;;;;;3.17;91.5459;932.7575;;;;
2023/03/12 02:07:43;;;;;;;11.5;9.4;;;;;;;3.18;91.78418;932.7586;;;;
2023/03/12 02:10:16;;;;;;;12.4;9.9;;;;;;;3.12;91.85059;932.8159;;;;
2023/03/12 02:12:44;;;;;;;12.3;9.7;;;;;;;3.18;91.62695;932.7523;;;;
2023/03/12 02:15:09;;;;;;;12.4;10.1;;;;;;;3.14;91.74219;932.7339;;;;
2023/03/12 02:17:36;;;;;;;11.6;9.5;;;;;;;3.15;91.85645;932.7978;;;;
2023/03/12 02:20:06;;;;;;;11.4;9.3;;;;;;;3.17;92.08496;932.6647;;;;
2023/03/12 02:22:26;;;;;;;13.3;9.8;;;;;;;3.22;92.05176;932.753;;;;
2023/03/12 02:24:52;;;;;;;11.4;9.4;;;;;;;3.25;91.74316;932.8158;;;;
2023/03/12 02:27:18;;;;;;;11.4;9;;;;;;;3.25;91.64258;932.8079;;;;
2023/03/12 02:29:44;;;;;;;11.7;9;;;;;;;3.29;91.38281;932.7501;;;;
2023/03/12 02:32:09;;;;;;;12.8;8.7;;;;;;;3.16;91.45605;932.84;;;;
2023/03/12 02:34:34;;;;;;;11;9;;;;;;;3.17;91.6377;932.8456;;;;
2023/03/12 02:37:01;;;;;;;11.1;8.5;;;;;;;3.19;91.47363;932.8155;;;;
2023/03/12 02:39:28;;;;;;;11.2;8.7;;;;;;;3.18;91.37012;932.9451;;;;
2023/03/12 02:41:53;;;;;;;10.5;8.4;;;;;;;3.01;91.91699;932.9647;;;;
2023/03/12 02:44:21;;;;;;;11.9;8.5;;;;;;;2.88;92.46191;932.9331;;;;
2023/03/12 02:46:46;;;;;;;10.5;8.8;;;;;;;2.85;93.15137;932.9598;;;;
2023/03/12 02:49:13;;;;;;;10.8;8.4;;;;;;;2.91;93.19629;933.003;;;;
2023/03/12 02:51:38;;;;;;;12.5;9.4;;;;;;;3;92.94727;932.981;;;;
2023/03/12 02:54:05;;;;;;;11.6;8.7;;;;;;;3.03;92.69727;933.051;;;;
2023/03/12 02:58:55;;;;;;;12.1;9.4;;;;;;;3.11;92.26367;933.0524;;;;
2023/03/12 03:01:25;;;;;;;11;8.9;;;;;;;3.14;92.24902;933.0817;;;;
2023/03/12 03:03:50;;;;;;;11.6;8.9;;;;;;;3.1;92.49609;933.004;;;;
2023/03/12 03:06:17;;;;;;;11.6;8.9;;;;;;;3.15;92.21582;933.0888;;;;
2023/03/12 03:08:42;;;;;;;11.3;9.1;;;;;;;3.13;91.86621;933.097;;;;
2023/03/12 03:11:08;;;;;;;11.9;9.1;;;;;;;3.21;91.83691;933.1317;;;;
2023/03/12 03:13:33;;;;;;;11.3;8.8;;;;;;;3.17;91.79492;933.1862;;;;
2023/03/12 03:16:03;;;;;;;11.7;9;;;;;;;3.11;91.89355;933.1917;;;;
2023/03/12 03:18:32;;;;;;;11.6;9.2;;;;;;;3.07;91.83887;933.1756;;;;
2023/03/12 03:20:57;;;;;;;12.8;9.6;;;;;;;3.08;91.95508;933.2231;;;;
2023/03/12 03:23:25;;;;;;;11.8;8.8;;;;;;;3.08;91.7627;933.1733;;;;
2023/03/12 03:25:51;;;;;;;12.6;9.5;;;;;;;3.13;91.76465;933.1915;;;;
2023/03/12 03:28:17;;;;;;;12.1;9.4;;;;;;;3.16;91.6582;933.2458;;;;
2023/03/12 03:30:42;;;;;;;12.6;9.3;;;;;;;3.17;91.41309;933.2225;;;;
2023/03/12 03:33:09;;;;;;;12.4;9.3;;;;;;;3.09;91.73242;933.2153;;;;
2023/03/12 03:35:34;;;;;;;10.9;8.9;;;;;;;3.08;92;933.2773;;;;
2023/03/12 03:38:01;;;;;;;11.9;9.5;;;;;;;3.05;92.26172;933.285;;;;
2023/03/12 03:40:26;;;;;;;12.4;9.7;;;;;;;3.07;92.18652;933.3619;;;;
2023/03/12 03:42:52;;;;;;;11.8;9.2;;;;;;;3.07;91.74902;933.2857;;;;
2023/03/12 03:45:18;;;;;;;11.9;9.3;;;;;;;3.16;91.49902;933.3518;;;;
2023/03/12 03:47:44;;;;;;;12.5;9;;;;;;;3.16;91.15332;933.3456;;;;
2023/03/12 03:50:09;;;;;;;11.4;8.8;;;;;;;3.12;91.29004;933.3303;;;;
2023/03/12 03:52:36;;;;;;;10.7;9.2;;;;;;;3.2;91.17188;933.3586;;;;
2023/03/12 03:55:01;;;;;;;12.8;9.8;;;;;;;3.09;91.27246;933.4324;;;;
2023/03/12 03:57:27;;;;;;;10.6;8.7;;;;;;;3.08;91.16797;933.44;;;;
2023/03/12 03:59:52;;;;;;;11.5;8.9;;;;;;;3.1;90.71387;933.3589;;;;
2023/03/12 04:02:32;;;;;;;10.9;8.5;;;;;;;3.08;90.9541;933.3904;;;;
2023/03/12 04:04:57;;;;;;;12.2;8.7;;;;;;;3.04;91.48535;933.4592;;;;
2023/03/12 04:07:27;;;;;;;12.6;9.5;;;;;;;3;91.66797;933.4433;;;;
2023/03/12 04:09:52;;;;;;;11.9;9.8;;;;;;;3;91.79004;933.4885;;;;
2023/03/12 04:14:44;;;;;;;13.3;10.5;;;;;;;2.94;92.11426;933.522;;;;
2023/03/12 04:17:09;;;;;;;13.9;10.6;;;;;;;2.97;92.32227;933.4231;;;;
2023/03/12 04:19:34;;;;;;;12.8;9.9;;;;;;;3.03;92.22363;933.4292;;;;
2023/03/12 04:22:01;;;;;;;11.8;9.7;;;;;;;3.07;91.95117;933.5474;;;;
2023/03/12 04:24:26;;;;;;;12.7;10.2;;;;;;;2.98;92.20117;933.5767;;;;
2023/03/12 04:26:54;;;;;;;14.2;11.1;;;;;;;2.98;92.12402;933.5705;;;;
2023/03/12 04:29:19;;;;;;;14.6;10.7;;;;;;;2.92;92.47852;933.4813;;;;
2023/03/12 04:31:44;;;;;;;13.2;10.5;;;;;;;2.92;92.68066;933.5521;;;;
2023/03/12 04:34:10;;;;;;;13.1;10.5;;;;;;;2.9;93.08008;933.6027;;;;
2023/03/12 04:36:35;;;;;;;13.9;10.3;;;;;;;2.9;93.00391;933.5234;;;;
2023/03/12 04:39:05;;;;;;;13.9;10.5;;;;;;;2.85;93.26367;933.5652;;;;
2023/03/12 04:41:26;;;;;;;15.4;11.2;;;;;;;2.83;93.2373;933.5723;;;;
2023/03/12 04:43:54;;;;;;;14.9;11.6;;;;;;;2.8;93.74316;933.56;;;;
2023/03/12 04:46:19;;;;;;;15.6;11;;;;;;;2.9;93.41895;933.5438;;;;
2023/03/12 04:48:45;;;;;;;16.2;11.6;;;;;;;2.89;93.32715;933.5592;;;;
2023/03/12 04:51:11;;;;;;;15.4;11.7;;;;;;;2.89;93.27148;933.5732;;;;
2023/03/12 04:53:36;;;;;;;16.2;11.7;;;;;;;2.86;93.11719;933.581;;;;
2023/03/12 04:56:01;;;;;;;15.7;11.7;;;;;;;2.69;93.46289;933.6299;;;;
2023/03/12 04:58:31;;;;;;;15;11.1;;;;;;;2.67;94.07129;933.655;;;;
2023/03/12 05:00:56;;;;;;;15.4;11.8;;;;;;;2.73;94.03125;933.6553;;;;
2023/03/12 05:03:27;;;;;;;15.8;11.7;;;;;;;2.48;94.58008;933.6431;;;;
2023/03/12 05:05:52;;;;;;;18.2;12.4;;;;;;;2.55;94.97949;933.637;;;;
2023/03/12 05:08:22;;;;;;;17.2;12.1;;;;;;;2.56;94.99121;933.5696;;;;
2023/03/12 05:10:48;;;;;;;16.3;11.8;;;;;;;2.49;95.46777;933.5117;;;;
2023/03/12 05:13:16;;;;;;;15.3;11.8;;;;;;;2.59;95.14258;933.448;;;;
2023/03/12 05:15:41;;;;;;;16.7;11.9;;;;;;;2.63;94.97168;933.6035;;;;
2023/03/12 05:18:06;;;;;;;16;12;;;;;;;2.56;95.22656;933.6177;;;;
2023/03/12 05:20:35;;;;;;;15.2;11.3;;;;;;;2.54;95.55859;933.5997;;;;
2023/03/12 05:23:00;;;;;;;16.4;11.1;;;;;;;2.61;95.38379;933.5268;;;;
2023/03/12 05:25:29;;;;;;;16.1;12.1;;;;;;;2.66;95.04688;933.5345;;;;
2023/03/12 05:27:57;;;;;;;15.6;11.5;;;;;;;2.59;95.19824;933.5038;;;;
2023/03/12 05:30:23;;;;;;;14.5;11.2;;;;;;;2.58;95.12988;933.4838;;;;
2023/03/12 05:32:53;;;;;;;16.8;12.3;;;;;;;2.39;95.79492;933.5381;;;;
2023/03/12 05:35:23;;;;;;;16.6;12.1;;;;;;;2.31;96.86035;933.5204;;;;
2023/03/12 05:37:54;;;;;;;14.6;11.1;;;;;;;2.37;96.96484;933.4895;;;;
2023/03/12 05:40:20;;;;;;;15.6;11.6;;;;;;;2.28;96.92188;933.4294;;;;
2023/03/12 05:42:49;;;;;;;16.5;11.6;;;;;;;2.25;97.34082;933.4103;;;;
2023/03/12 05:45:18;;;;;;;14.6;10.9;;;;;;;2.28;97.3584;933.4355;;;;
2023/03/12 05:47:49;;;;;;;13.4;10.6;;;;;;;2.28;97.06738;933.4677;;;;
2023/03/12 05:50:18;;;;;;;14.4;10.4;;;;;;;2.37;97.05469;933.5075;;;;
2023/03/12 05:52:43;;;;;;;13.7;10.2;;;;;;;2.43;96.67676;933.4235;;;;
2023/03/12 05:55:13;;;;;;;14.7;11.2;;;;;;;2.57;96.24805;933.3963;;;;
2023/03/12 05:57:43;;;;;;;14;11.1;;;;;;;2.47;95.87793;933.3798;;;;
2023/03/12 06:00:08;;;;;;;12.7;10.2;;;;;;;2.47;96.0459;933.4034;;;;
2023/03/12 06:02:38;;;;;;;13.9;10;;;;;;;2.51;96.2334;933.4917;;;;
2023/03/12 06:05:08;;;;;;;13.1;10.1;;;;;;;2.5;95.89746;933.3683;;;;
2023/03/12 06:07:33;;;;;;;15.4;10.1;;;;;;;2.52;96.05859;933.4199;;;;
2023/03/12 06:10:00;;;;;;;12.8;9.3;;;;;;;2.58;95.83594;933.3644;;;;
2023/03/12 06:12:25;;;;;;;14.1;10.4;;;;;;;2.69;95.38867;933.3067;;;;
2023/03/12 06:14:52;;;;;;;13.7;9.5;;;;;;;2.62;95.05957;933.3242;;;;
2023/03/12 06:17:23;;;;;;;10.9;8.6;;;;;;;2.71;95.1582;933.2758;;;;
2023/03/12 06:19:52;;;;;;;13.9;10.2;;;;;;;2.69;94.83984;933.2344;;;;
2023/03/12 06:22:17;;;;;;;12.6;9.5;;;;;;;2.63;94.73828;933.2162;;;;
2023/03/12 06:24:46;;;;;;;10.6;8.7;;;;;;;2.54;94.85059;933.3585;;;;
2023/03/12 06:27:10;;;;;;;11.4;8.3;;;;;;;2.49;95.50098;933.3554;;;;
2023/03/12 06:29:37;;;;;;;11.3;9.1;;;;;;;2.5;95.7832;933.3563;;;;
2023/03/12 06:32:02;;;;;;;11;8.5;;;;;;;2.45;96.08691;933.2408;;;;
2023/03/12 06:34:30;;;;;;;11.5;8.9;;;;;;;2.38;96.30566;933.3742;;;;
2023/03/12 06:36:55;;;;;;;12.5;9.4;;;;;;;2.38;96.68652;933.379;;;;
2023/03/12 06:39:22;;;;;;;13.2;9.7;;;;;;;2.46;96.69434;933.3889;;;;
2023/03/12 06:41:46;;;;;;;19.6;13.5;;;;;;;2.35;96.74805;933.4458;;;;
2023/03/12 06:44:11;;;;;;;19.6;13.7;;;;;;;2.36;97.00586;933.4686;;;;
2023/03/12 06:46:44;;;;;;;21.3;15;;;;;;;2.35;97.17188;933.4384;;;;
2023/03/12 06:49:11;;;;;;;17.5;12.6;;;;;;;2.33;97.66211;933.3367;;;;
2023/03/12 06:51:36;;;;;;;17.3;11.7;;;;;;;2.62;97.16797;933.4202;;;;
2023/03/12 06:54:05;;;;;;;13.8;9.9;;;;;;;2.8;96.2207;933.3446;;;;
2023/03/12 06:56:30;;;;;;;12;8.7;;;;;;;2.78;95.2207;933.4338;;;;
2023/03/12 06:58:56;;;;;;;10.5;8.4;;;;;;;2.86;95.08008;933.459;;;;
2023/03/12 07:01:21;;;;;;;11;8.5;;;;;;;2.99;94.59473;933.4514;;;;
2023/03/12 07:03:50;;;;;;;11.7;9.3;;;;;;;3.08;93.99707;933.4559;;;;
2023/03/12 07:06:15;;;;;;;12.2;9.2;;;;;;;3.03;93.51367;933.4717;;;;
2023/03/12 07:08:42;;;;;;;10.1;8.5;;;;;;;3.2;93.25977;933.412;;;;
2023/03/12 07:11:07;;;;;;;10.5;8.7;;;;;;;3.34;93.12305;933.5061;;;;
2023/03/12 07:13:34;;;;;;;9.9;8.2;;;;;;;3.34;92.41602;933.5391;;;;
2023/03/12 07:15:59;;;;;;;12.9;8.6;;;;;;;3.23;92.61328;933.5311;;;;
2023/03/12 07:18:28;;;;;;;9.9;8;;;;;;;3.32;92.24316;933.5889;;;;
2023/03/12 07:20:53;;;;;;;9.5;8.3;;;;;;;3.29;92.02051;933.5266;;;;
2023/03/12 07:23:21;;;;;;;12.4;8.9;;;;;;;3.34;92.59375;933.4949;;;;
2023/03/12 07:25:47;;;;;;;15;10.4;;;;;;;3.6;92.08887;933.4553;;;;
2023/03/12 07:28:14;;;;;;;12.5;8.9;;;;;;;3.57;90.59863;933.4811;;;;
2023/03/12 07:30:39;;;;;;;11;8.5;;;;;;;3.68;91.13965;933.3807;;;;
2023/03/12 07:33:07;;;;;;;9.3;7.7;;;;;;;3.88;90.58887;933.3942;;;;
2023/03/12 07:35:32;;;;;;;8.6;7.2;;;;;;;3.93;90.12598;933.3712;;;;
2023/03/12 07:37:59;;;;;;;9.3;6.8;;;;;;;4.34;89.66113;933.3709;;;;
2023/03/12 07:40:25;;;;;;;8;6.7;;;;;;;4.44;87.99512;933.3461;;;;
2023/03/12 07:42:52;;;;;;;11.3;7.9;;;;;;;4.57;87.51465;933.3491;;;;
2023/03/12 07:45:17;;;;;;;11.1;7.3;;;;;;;4.76;86.53711;933.3096;;;;
2023/03/12 07:47:44;;;;;;;9.6;7.6;;;;;;;4.64;85.10742;933.2841;;;;
2023/03/12 07:50:09;;;;;;;10.1;7.7;;;;;;;4.53;86.07715;933.2971;;;;
2023/03/12 07:52:41;;;;;;;10.5;7.5;;;;;;;4.95;86.00098;933.4017;;;;
2023/03/12 07:55:06;;;;;;;9.7;8.1;;;;;;;4.8;84.46289;933.4455;;;;
2023/03/12 07:57:34;;;;;;;9.5;7;;;;;;;4;86.04785;933.4272;;;;
2023/03/12 07:59:59;;;;;;;9.8;6.8;;;;;;;3.61;88.40625;933.5023;;;;
2023/03/12 08:02:29;;;;;;;8.6;7.1;;;;;;;3.72;89.2373;933.5288;;;;
2023/03/12 08:04:55;;;;;;;10.2;7.5;;;;;;;3.8;88.88574;933.5532;;;;
2023/03/12 08:07:20;;;;;;;10.5;8.5;;;;;;;3.78;89.30664;933.633;;;;
2023/03/12 08:09:51;;;;;;;9.8;8.5;;;;;;;3.88;89.39551;933.6548;;;;
2023/03/12 08:12:19;;;;;;;9.4;7.7;;;;;;;3.81;89.68359;933.6931;;;;
2023/03/12 08:14:45;;;;;;;8.8;7.1;;;;;;;3.76;89.55078;933.8261;;;;
2023/03/12 08:22:38;;;;;;;13.9;10.7;;;;;;;4.12;89.05078;933.9922;;;;
2023/03/12 08:25:03;;;;;;;13.1;9.3;;;;;;;4.19;88.89941;934.0398;;;;
2023/03/12 08:27:35;;;;;;;9.1;7.4;;;;;;;4.18;88.23145;934.0033;;;;
2023/03/12 08:30:03;;;;;;;10.5;7.3;;;;;;;4.23;87.88281;934.0584;;;;
2023/03/12 08:32:29;;;;;;;9.2;6.9;;;;;;;4.46;87.36621;933.985;;;;
2023/03/12 08:34:56;;;;;;;8.2;6.6;;;;;;;4.71;86.89063;933.8875;;;;
2023/03/12 08:37:22;;;;;;;8.2;6.2;;;;;;;5.04;86.69727;934.0299;;;;
2023/03/12 08:39:49;;;;;;;8.9;6.2;;;;;;;5.86;85.20215;934.0139;;;;
2023/03/12 08:42:14;;;;;;;6.9;5.3;;;;;;;6.88;78.52441;933.9162;;;;
2023/03/12 08:44:39;;;;;;;7.2;5.7;;;;;;;7.07;74.91016;933.8497;;;;
2023/03/12 08:47:07;;;;;;;7;5.9;;;;;;;7.86;73.52832;933.9084;;;;
2023/03/12 08:49:32;;;;;;;8.2;6.2;;;;;;;9.02;69.99609;933.9224;;;;
2023/03/12 08:52:03;;;;;;;8.3;6.1;;;;;;;9.13;67.27051;933.8883;;;;
2023/03/12 08:54:33;;;;;;;8.5;6.6;;;;;;;8.33;70.22363;933.9113;;;;
2023/03/12 08:56:58;;;;;;;7.2;6.1;;;;;;;8.2;72.06348;933.8572;;;;
2023/03/12 08:59:23;;;;;;;6.6;5.6;;;;;;;8.73;69.93555;933.9169;;;;
2023/03/12 09:01:53;;;;;;;6.6;4.9;;;;;;;8.32;71.02832;933.9381;;;;
2023/03/12 09:04:22;;;;;;;4.8;4.2;;;;;;;8.64;69.5459;933.8502;;;;
2023/03/12 09:06:47;;;;;;;5.5;4.8;;;;;;;7.29;72.86621;933.9547;;;;
2023/03/12 09:09:12;;;;;;;5;4.2;;;;;;;6.85;76.34375;934.0486;;;;
2023/03/12 09:11:38;;;;;;;3.8;3.1;;;;;;;6.59;78.32227;934.0095;;;;
2023/03/12 09:14:03;;;;;;;2.8;2.3;;;;;;;6.47;78.3916;933.9995;;;;
2023/03/12 09:16:29;;;;;;;2.4;2.2;;;;;;;5.96;80.64746;934.0714;;;;
2023/03/12 09:18:54;;;;;;;4.2;3.7;;;;;;;5.9;81.78906;934.1477;;;;
2023/03/12 09:21:21;;;;;;;5.2;3.9;;;;;;;5.67;83.01953;934.0927;;;;
2023/03/12 09:23:46;;;;;;;5.1;3.9;;;;;;;5.45;85.2666;934.0947;;;;
2023/03/12 09:26:11;;;;;;;5;3.6;;;;;;;5.44;86.36035;933.9462;;;;
2023/03/12 09:28:36;;;;;;;4.6;4;;;;;;;5.92;85.44043;934.0161;;;;
2023/03/12 09:31:04;;;;;;;4.9;4;;;;;;;7.2;82.16016;933.9838;;;;
2023/03/12 09:33:29;;;;;;;3.1;2.8;;;;;;;8.87;74.40625;933.778;;;;
2023/03/12 09:35:56;;;;;;;2.7;2.3;;;;;;;9.55;68.9873;933.8257;;;;
2023/03/12 09:38:21;;;;;;;2.5;2.3;;;;;;;9.46;69.89551;933.8689;;;;
2023/03/12 09:40:53;;;;;;;3.5;2.7;;;;;;;11.83;63.48828;933.7593;;;;
2023/03/12 09:43:18;;;;;;;3.1;2.7;;;;;;;13.34;58.89453;933.9018;;;;
2023/03/12 09:45:43;;;;;;;3.4;2.6;;;;;;;13.24;57.21387;933.9363;;;;
2023/03/12 09:48:08;;;;;;;2.9;2.6;;;;;;;12.4;57.62109;933.9094;;;;
2023/03/12 09:50:34;;;;;;;3.5;2.7;;;;;;;11.32;59.95898;934.0635;;;;
2023/03/12 09:53:05;;;;;;;4.7;4;;;;;;;9.6;66.75;934.1089;;;;
2023/03/12 09:55:32;;;;;;;5.2;3.9;;;;;;;8.71;72.03613;934.0977;;;;
2023/03/12 09:57:59;;;;;;;5.3;4.8;;;;;;;7.65;76.19043;934.3072;;;;
2023/03/12 10:00:25;;;;;;;5.5;4.6;;;;;;;6.86;78.80176;934.2433;;;;
2023/03/12 10:02:50;;;;;;;8.5;6.9;;;;;;;6.11;82.93652;934.4003;;;;
2023/03/12 10:05:16;;;;;;;7.9;5.4;;;;;;;6.09;83.3623;934.3652;;;;
2023/03/12 10:07:41;;;;;;;5.4;4.6;;;;;;;6.41;84.31738;934.4263;;;;
2023/03/12 10:10:06;;;;;;;4.2;3.2;;;;;;;6.71;81.38965;934.3688;;;;
2023/03/12 10:12:34;;;;;;;3.3;3;;;;;;;7.62;78.3291;934.2759;;;;
2023/03/12 10:14:59;;;;;;;3.3;3;;;;;;;9.04;71.92188;934.2235;;;;
2023/03/12 10:17:26;;;;;;;3.6;3.2;;;;;;;9.02;72.16699;934.1598;;;;
2023/03/12 10:19:51;;;;;;;3.5;2.7;;;;;;;8.15;73.35059;934.1921;;;;
2023/03/12 10:22:16;;;;;;;3.5;3.2;;;;;;;7.78;75.71582;934.2115;;;;
2023/03/12 10:24:45;;;;;;;4;3.1;;;;;;;7.67;76.78516;934.2497;;;;
2023/03/12 10:27:10;;;;;;;2.1;1.6;;;;;;;7.79;74.85449;934.2307;;;;
2023/03/12 10:29:35;;;;;;;2.1;1.9;;;;;;;7.47;78.07617;934.2434;;;;
2023/03/12 10:32:00;;;;;;;2.2;2;;;;;;;7.4;78.29004;934.25;;;;
2023/03/12 10:34:25;;;;;;;3;2.2;;;;;;;7.42;81.44629;934.3505;;;;
2023/03/12 10:36:52;;;;;;;2.4;2.1;;;;;;;7.81;78.9541;934.2725;;;;
2023/03/12 10:39:17;;;;;;;3.3;2.4;;;;;;;8.3;77.43164;934.1512;;;;
2023/03/12 10:41:46;;;;;;;2.9;2.5;;;;;;;7.97;77.83691;934.3553;;;;
2023/03/12 10:44:11;;;;;;;2.8;2.4;;;;;;;8.05;77.68164;934.3368;;;;
2023/03/12 10:46:36;;;;;;;2.4;2;;;;;;;8.35;78.50781;934.3203;;;;
2023/03/12 10:49:01;;;;;;;2;1.8;;;;;;;8.21;77.58594;934.4604;;;;
2023/03/12 10:51:26;;;;;;;3.2;2.3;;;;;;;8.11;78.76074;934.4359;;;;
2023/03/12 10:53:53;;;;;;;4.6;3.3;;;;;;;8.21;78.16504;934.3628;;;;
2023/03/12 10:56:19;;;;;;;4;2.2;;;;;;;8.11;78.7373;934.4669;;;;
2023/03/12 10:58:44;;;;;;;4.1;3.2;;;;;;;8.42;78.93066;934.3586;;;;
2023/03/12 11:01:12;;;;;;;3.4;2.7;;;;;;;8.72;77.76855;934.3692;;;;
2023/03/12 11:03:41;;;;;;;3.7;2.9;;;;;;;8.92;76.14355;934.4619;;;;
2023/03/12 11:06:10;;;;;;;2.5;2.2;;;;;;;9.22;75.00098;934.4088;;;;
2023/03/12 11:08:34;;;;;;;2.7;2.3;;;;;;;9.26;73.13086;934.5425;;;;
2023/03/12 11:11:02;;;;;;;2.7;2.5;;;;;;;9.56;72.69141;934.4767;;;;
2023/03/12 11:13:29;;;;;;;3;2.6;;;;;;;9.93;72.87891;934.4852;;;;
2023/03/12 11:15:54;;;;;;;2.5;2.3;;;;;;;9.98;71.00488;934.5506;;;;
2023/03/12 11:18:19;;;;;;;2.8;2.5;;;;;;;9.83;72.42871;934.4067;;;;
2023/03/12 11:20:46;;;;;;;2.8;2.5;;;;;;;10.03;71.13965;934.6053;;;;
2023/03/12 11:23:12;;;;;;;2.5;2;;;;;;;9.61;72.17578;934.5981;;;;
2023/03/12 11:25:40;;;;;;;2.9;2.6;;;;;;;9.8;71.7959;934.5405;;;;
2023/03/12 11:28:06;;;;;;;2.9;2.6;;;;;;;9.96;70.69434;934.5474;;;;
2023/03/12 11:30:32;;;;;;;3.2;2.8;;;;;;;10.12;71.65625;934.3567;;;;
2023/03/12 11:32:57;;;;;;;3.1;2.5;;;;;;;9.9;73.41992;934.5629;;;;
2023/03/12 11:35:25;;;;;;;2.7;2.4;;;;;;;9.11;74.73145;934.4949;;;;
2023/03/12 11:37:51;;;;;;;3.9;3;;;;;;;9.23;77.50879;934.3214;;;;
2023/03/12 11:40:16;;;;;;;2.6;2.4;;;;;;;10.06;75.85449;934.3231;;;;
2023/03/12 11:42:44;;;;;;;2.9;2.7;;;;;;;10.48;72.18457;934.4434;;;;
2023/03/12 11:45:17;;;;;;;4.2;3.2;;;;;;;10.41;72.68555;934.4416;;;;
2023/03/12 11:47:44;;;;;;;3.3;2.9;;;;;;;9.64;74.09473;934.4775;;;;
2023/03/12 11:50:09;;;;;;;4.4;3.5;;;;;;;9.98;75.13477;934.3876;;;;
2023/03/12 11:52:35;;;;;;;3.5;3;;;;;;;9.51;76.875;934.5352;;;;
2023/03/12 11:55:01;;;;;;;3.5;3.2;;;;;;;9.23;76.4834;934.6606;;;;
2023/03/12 11:57:26;;;;;;;4;3.3;;;;;;;8.79;77.97461;934.5255;;;;
2023/03/12 11:59:51;;;;;;;4.3;3.9;;;;;;;8.66;80.14453;934.6552;;;;
2023/03/12 12:02:16;;;;;;;5.1;4.4;;;;;;;8.68;82.56934;934.7268;;;;
2023/03/12 12:04:41;;;;;;;5.1;4.3;;;;;;;8.52;83.65332;934.6605;;;;
2023/03/12 12:07:07;;;;;;;3.4;3.1;;;;;;;8.41;82.48438;934.7402;;;;
2023/03/12 12:09:33;;;;;;;3.5;3;;;;;;;8.02;85.83887;934.7916;;;;
2023/03/12 12:11:58;;;;;;;3.9;2.5;;;;;;;8.06;81.38379;934.7603;;;;
2023/03/12 12:14:22;;;;;;;3.5;3;;;;;;;8.02;84.98535;934.7519;;;;
2023/03/12 12:16:50;;;;;;;4.2;2.8;;;;;;;7.84;85.69824;934.7888;;;;
2023/03/12 12:19:17;;;;;;;3.3;3;;;;;;;7.79;86.29297;934.757;;;;
2023/03/12 12:21:43;;;;;;;5.6;3.9;;;;;;;7.77;87.2627;934.7955;;;;
2023/03/12 12:24:12;;;;;;;4.8;3.4;;;;;;;7.99;87.59082;934.8186;;;;
2023/03/12 12:26:37;;;;;;;3.5;3.2;;;;;;;8.34;87.32129;934.8199;;;;
2023/03/12 12:29:02;;;;;;;3.9;3.5;;;;;;;8.65;85.99707;934.7011;;;;
2023/03/12 12:31:27;;;;;;;5.4;4;;;;;;;8.91;85.1377;934.6459;;;;
2023/03/12 12:33:53;;;;;;;2.2;2;;;;;;;9.37;82.02051;934.6125;;;;
2023/03/12 12:36:18;;;;;;;3.7;2.6;;;;;;;9.19;80.40137;934.6838;;;;
2023/03/12 12:38:43;;;;;;;3.6;3.3;;;;;;;9.25;82.46191;934.6337;;;;
2023/03/12 12:41:08;;;;;;;3.3;3;;;;;;;9.76;82.70996;934.6636;;;;
2023/03/12 12:43:34;;;;;;;2.9;2.6;;;;;;;10.08;79.89648;934.5793;;;;
2023/03/12 12:45:58;;;;;;;4.1;2.9;;;;;;;10.08;77.32813;934.5156;;;;
2023/03/12 12:48:23;;;;;;;3.4;2.9;;;;;;;9.65;78.64063;934.4458;;;;
2023/03/12 12:50:49;;;;;;;4.4;3.8;;;;;;;9.78;82.29004;934.5094;;;;
2023/03/12 12:53:14;;;;;;;4;3.6;;;;;;;10;79.82422;934.5189;;;;
2023/03/12 12:55:39;;;;;;;3.5;3.1;;;;;;;9.87;79.37793;934.4578;;;;
2023/03/12 12:58:04;;;;;;;4;3;;;;;;;9.6;81.24316;934.5104;;;;
2023/03/12 13:00:29;;;;;;;4.4;3.2;;;;;;;9.42;83.03027;934.6164;;;;
2023/03/12 13:02:54;;;;;;;3.9;3;;;;;;;9.46;82.62891;934.6953;;;;
2023/03/12 13:05:19;;;;;;;3.2;2.9;;;;;;;9.62;83.41016;934.5823;;;;
2023/03/12 13:07:47;;;;;;;2.7;2.3;;;;;;;9.24;82.58496;934.6495;;;;
2023/03/12 13:10:14;;;;;;;2.8;2.5;;;;;;;9.18;83.78125;934.7751;;;;
2023/03/12 13:12:44;;;;;;;2.4;2.1;;;;;;;9.29;84.33789;934.6913;;;;
2023/03/12 13:15:09;;;;;;;2.2;1.9;;;;;;;9.37;84.41016;934.7626;;;;
2023/03/12 13:17:43;;;;;;;4.3;2;;;;;;;9.27;84.51758;934.7634;;;;
2023/03/12 13:20:13;;;;;;;3;2.6;;;;;;;9.27;85.51758;934.7786;;;;
2023/03/12 13:22:43;;;;;;;4.2;3.2;;;;;;;8.94;84.33691;934.7877;;;;
2023/03/12 13:25:15;;;;;;;28.5;23.7;;;;;;;8.69;87.04004;934.7769;;;;
2023/03/12 13:27:41;;;;;;;15.7;10.4;;;;;;;8.98;86.62109;934.7905;;;;
2023/03/12 13:30:05;;;;;;;244.4;120;;;;;;;8.81;86.2002;934.7681;;;;
2023/03/12 13:32:30;;;;;;;28.7;17.6;;;;;;;9.14;87.16406;934.8176;;;;
2023/03/12 13:34:55;;;;;;;6.7;4.5;;;;;;;9.27;86.69238;934.8095;;;;
2023/03/12 13:37:25;;;;;;;4.9;4.3;;;;;;;9.18;86.18262;934.8267;;;;
2023/03/12 13:39:50;;;;;;;8.9;8;;;;;;;9.03;85.91504;934.8683;;;;
2023/03/12 13:42:18;;;;;;;5.7;4.7;;;;;;;9.24;86.56934;934.849;;;;
2023/03/12 13:44:46;;;;;;;7;5.8;;;;;;;9.44;85.0166;934.7031;;;;
2023/03/12 13:47:11;;;;;;;4.3;3.8;;;;;;;9.34;84.23242;934.8244;;;;
2023/03/12 13:49:36;;;;;;;5.2;4.7;;;;;;;;;;;;;
2023/03/12 13:52:02;;;;;;;6.7;4.3;;;;;;;;;;;;;
2023/03/12 13:54:27;;;;;;;88.5;53.5;;;;;;;;;;;;;
2023/03/12 13:56:52;;;;;;;4.1;3.4;;;;;;;;;;;;;
2023/03/12 13:59:17;;;;;;;3.8;3.4;;;;;;;;;;;;;
2023/03/12 14:01:43;;;;;;;9.2;6.1;;;;;;;;;;;;;
2023/03/12 14:04:08;;;;;;;5.6;4.1;;;;;;;;;;;;;
2023/03/12 14:06:33;;;;;;;3.9;3.2;;;;;;;;;;;;;
2023/03/12 14:08:58;;;;;;;11.2;8.5;;;;;;;;;;;;;
2023/03/12 14:11:23;;;;;;;3.9;3.4;;;;;;;;;;;;;
2023/03/12 14:13:48;;;;;;;10;8.5;;;;;;;;;;;;;
2023/03/12 14:16:13;;;;;;;4;2.9;;;;;;;;;;;;;
2023/03/12 14:18:38;;;;;;;6.7;5.5;;;;;;;;;;;;;
2023/03/12 14:21:04;;;;;;;7.6;5.4;;;;;;;;;;;;;
2023/03/12 14:23:29;;;;;;;2.7;2.3;;;;;;;;;;;;;
2023/03/12 14:25:55;;;;;;;3;2.1;;;;;;;;;;;;;
2023/03/12 14:28:21;;;;;;;5.4;3.7;;;;;;;;;;;;;
2023/03/12 14:30:46;;;;;;;3.7;3.2;;;;;;;;;;;;;
2023/03/12 14:33:12;;;;;;;1.5;1.4;;;;;;;;;;;;;
2023/03/12 14:35:37;;;;;;;2;1.7;;;;;;;;;;;;;
2023/03/12 14:38:04;;;;;;;2.1;1.8;;;;;;;;;;;;;
2023/03/12 14:40:29;;;;;;;2.2;1.8;;;;;;;;;;;;;
2023/03/12 14:42:55;;;;;;;2.7;2.3;;;;;;;;;;;;;
2023/03/12 14:45:19;;;;;;;27.3;18.2;;;;;;;;;;;;;
2023/03/12 14:47:46;;;;;;;3;2.6;;;;;;;;;;;;;
2023/03/12 14:50:12;;;;;;;2.8;1.5;;;;;;;;;;;;;
2023/03/12 14:52:40;;;;;;;10.8;7.3;;;;;;;;;;;;;
2023/03/12 14:55:05;;;;;;;1.7;1.6;;;;;;;;;;;;;
2023/03/12 14:57:30;;;;;;;1.9;1.7;;;;;;;;;;;;;
2023/03/12 14:59:55;;;;;;;2.1;1.8;;;;;;;;;;;;;
2023/03/12 15:02:22;;;;;;;1.7;1.5;;;;;;;;;;;;;
2023/03/12 15:04:47;;;;;;;1.6;1.5;;;;;;;;;;;;;
2023/03/12 15:07:12;;;;;;;2.1;1.4;;;;;;;;;;;;;